Time;durP1;ratioP1;P1;durP2;ratioP2;P2;SDS_P1;SDS_P2;PMS_P1;PMS_P2;Temp;Humidity;BMP_temperature;BMP_pressure;BME280_temperature;BME280_humidity;BME280_pressure;Samples;Min_cycle;Max_cycle;Signal;HPM_P1;HPM_P2
2021/03/28 00:00:13;;;;;;;4.75;3.20;;;4.30;95.90;;;;;;5000277;28;20235;-64
2021/03/28 00:03:09;;;;;;;4.88;3.97;;;4.30;96.00;;;;;;4985332;28;20239;-64
2021/03/28 00:05:36;;;;;;;4.10;3.60;;;4.20;96.50;;;;;;4987621;28;20215;-63
2021/03/28 00:08:21;;;;;;;5.60;4.00;;;4.10;96.40;;;;;;5007704;28;20216;-64
2021/03/28 00:11:09;;;;;;;5.05;3.35;;;4.20;96.40;;;;;;5007374;28;20788;-64
2021/03/28 00:13:52;;;;;;;6.25;4.35;;;4.10;96.30;;;;;;5010032;28;20214;-63
2021/03/28 00:16:26;;;;;;;6.32;3.65;;;4.00;96.60;;;;;;4996115;28;20448;-65
2021/03/28 00:19:04;;;;;;;6.45;4.30;;;3.80;96.80;;;;;;5002281;28;20255;-63
2021/03/28 00:21:33;;;;;;;5.22;4.10;;;3.60;97.30;;;;;;4997914;28;20203;-63
2021/03/28 00:24:12;;;;;;;5.18;4.35;;;3.60;97.50;;;;;;5000138;28;20306;-65
2021/03/28 00:26:45;;;;;;;5.35;4.85;;;3.60;97.30;;;;;;5003970;28;20391;-64
2021/03/28 00:29:25;;;;;;;5.18;4.25;;;3.70;97.50;;;;;;5015803;28;20215;-66
2021/03/28 00:32:06;;;;;;;5.85;4.97;;;3.50;97.50;;;;;;5015922;28;20222;-64
2021/03/28 00:34:45;;;;;;;7.80;3.90;;;3.40;97.80;;;;;;5006046;28;20207;-65
2021/03/28 00:37:11;;;;;;;5.88;3.65;;;3.40;97.80;;;;;;5006324;28;20238;-64
2021/03/28 00:39:48;;;;;;;5.63;4.03;;;3.50;98.00;;;;;;5003794;28;20544;-63
2021/03/28 00:42:27;;;;;;;4.75;2.67;;;3.30;98.00;;;;;;5008016;28;20538;-64
2021/03/28 00:45:10;;;;;;;12.93;5.68;;;3.40;97.90;;;;;;5015553;28;20238;-64
2021/03/28 00:47:39;;;;;;;3.78;3.30;;;3.20;98.20;;;;;;4999974;28;20318;-64
2021/03/28 00:50:27;;;;;;;6.22;4.47;;;3.20;98.30;;;;;;5000575;28;20203;-63
2021/03/28 00:53:00;;;;;;;3.80;3.42;;;3.20;98.20;;;;;;5000245;28;20218;-65
2021/03/28 00:55:33;;;;;;;7.80;4.50;;;3.30;98.10;;;;;;4998273;28;20226;-63
2021/03/28 00:58:39;;;;;;;5.85;4.10;;;3.10;98.30;;;;;;4995537;28;20295;-64
2021/03/28 01:01:21;;;;;;;6.47;4.82;;;3.10;98.50;;;;;;4979826;28;20230;-64
2021/03/28 01:04:10;;;;;;;8.57;4.00;;;3.20;98.30;;;;;;4983388;28;20215;-64
2021/03/28 01:06:54;;;;;;;9.18;4.82;;;3.30;98.30;;;;;;4991998;28;20505;-64
2021/03/28 01:09:37;;;;;;;7.93;4.68;;;3.60;98.10;;;;;;5006141;28;20212;-63
2021/03/28 01:12:35;;;;;;;5.10;4.30;;;3.80;97.60;;;;;;5005212;28;20221;-65
2021/03/28 01:15:23;;;;;;;7.75;3.90;;;4.00;97.20;;;;;;4999923;28;20213;-63
2021/03/28 01:18:06;;;;;;;4.40;4.00;;;4.10;96.70;;;;;;4986933;28;20248;-63
2021/03/28 01:20:49;;;;;;;9.45;3.55;;;4.20;96.70;;;;;;4999395;28;20204;-64
2021/03/28 01:23:22;;;;;;;7.38;5.43;;;4.30;96.30;;;;;;5000498;28;20212;-63
2021/03/28 01:25:48;;;;;;;3.88;3.58;;;4.40;96.30;;;;;;5000316;28;20208;-62
2021/03/28 01:28:42;;;;;;;8.85;5.18;;;4.20;96.40;;;;;;5000293;28;20213;-63
2021/03/28 01:31:33;;;;;;;5.88;4.05;;;4.00;96.70;;;;;;4986414;28;20507;-64
2021/03/28 01:34:08;;;;;;;6.28;4.38;;;4.10;96.60;;;;;;4999915;28;20218;-64
2021/03/28 01:37:01;;;;;;;9.10;5.65;;;4.00;96.70;;;;;;4987503;28;20204;-62
2021/03/28 01:40:10;;;;;;;6.10;4.90;;;3.80;97.10;;;;;;4985219;28;20675;-63
2021/03/28 01:43:03;;;;;;;11.73;6.65;;;3.70;97.40;;;;;;4959387;28;20216;-64
2021/03/28 01:45:35;;;;;;;7.25;4.35;;;3.50;97.70;;;;;;4989489;28;20202;-63
2021/03/28 01:48:31;;;;;;;5.80;4.40;;;3.40;98.00;;;;;;4998785;28;20280;-65
2021/03/28 01:51:16;;;;;;;7.18;4.20;;;3.40;98.10;;;;;;4931115;28;20233;-64
2021/03/28 01:54:03;;;;;;;5.65;4.97;;;3.10;98.60;;;;;;4982435;28;20499;-63
2021/03/28 01:56:54;;;;;;;6.20;5.55;;;3.10;98.80;;;;;;4991629;28;20206;-64
2021/03/28 01:59:47;;;;;;;6.93;6.10;;;3.20;98.70;;;;;;4980547;28;20210;-64
2021/03/28 02:02:53;;;;;;;9.48;5.38;;;2.90;98.80;;;;;;4983546;28;20549;-63
2021/03/28 02:05:28;;;;;;;7.75;4.88;;;3.30;98.70;;;;;;4993596;28;20254;-63
2021/03/28 02:07:55;;;;;;;10.55;4.85;;;3.30;98.40;;;;;;4980975;28;20522;-64
2021/03/28 02:10:45;;;;;;;8.68;4.88;;;3.50;98.40;;;;;;4998972;28;20243;-64
2021/03/28 02:13:40;;;;;;;9.73;5.45;;;3.50;98.10;;;;;;4998570;28;20296;-63
2021/03/28 02:16:21;;;;;;;7.43;5.15;;;3.60;98.00;;;;;;4987701;28;20235;-63
2021/03/28 02:19:04;;;;;;;5.35;4.65;;;3.50;98.30;;;;;;4985573;28;20213;-63
2021/03/28 02:21:49;;;;;;;5.75;4.75;;;3.60;97.90;;;;;;4998555;28;20278;-63
2021/03/28 02:24:42;;;;;;;5.50;4.20;;;3.60;97.90;;;;;;5018071;28;20428;-64
2021/03/28 02:27:14;;;;;;;7.50;5.53;;;3.60;97.90;;;;;;5012585;28;20200;-64
2021/03/28 02:29:56;;;;;;;5.10;4.60;;;3.60;97.80;;;;;;5009781;28;20218;-63
2021/03/28 02:32:30;;;;;;;5.68;5.05;;;3.50;97.80;;;;;;4992812;28;20203;-64
2021/03/28 02:35:16;;;;;;;7.85;5.32;;;3.40;98.10;;;;;;4991808;28;20502;-63
2021/03/28 02:38:14;;;;;;;6.68;5.82;;;3.40;98.20;;;;;;4986458;28;20224;-63
2021/03/28 02:40:50;;;;;;;6.32;5.07;;;3.20;98.50;;;;;;4995792;28;20214;-64
2021/03/28 02:43:49;;;;;;;7.35;6.13;;;3.00;98.90;;;;;;4990878;28;20205;-64
2021/03/28 02:46:24;;;;;;;7.13;5.15;;;3.10;98.90;;;;;;4986866;28;20211;-64
2021/03/28 02:48:58;;;;;;;6.55;5.32;;;3.00;99.00;;;;;;4997803;28;20682;-64
2021/03/28 02:51:51;;;;;;;8.68;6.60;;;3.00;99.00;;;;;;4997754;28;20229;-64
2021/03/28 02:54:36;;;;;;;6.90;5.25;;;2.90;99.00;;;;;;4998077;28;20207;-63
2021/03/28 02:57:36;;;;;;;8.30;6.30;;;2.90;99.00;;;;;;4987974;28;20224;-64
2021/03/28 03:00:31;;;;;;;6.78;6.15;;;2.80;99.40;;;;;;4989486;28;20214;-63
2021/03/28 03:03:10;;;;;;;8.57;5.70;;;2.70;99.40;;;;;;4999330;28;20203;-64
2021/03/28 03:05:43;;;;;;;6.85;5.13;;;2.70;99.20;;;;;;4999524;28;20630;-63
2021/03/28 03:08:17;;;;;;;6.50;5.85;;;2.90;99.40;;;;;;4984800;28;20211;-63
2021/03/28 03:11:04;;;;;;;10.05;6.32;;;2.80;99.40;;;;;;4997496;28;20570;-62
2021/03/28 03:14:11;;;;;;;8.23;6.88;;;2.80;99.40;;;;;;4979053;28;20243;-64
2021/03/28 03:17:15;;;;;;;8.75;6.30;;;2.50;99.10;;;;;;4992221;28;20426;-64
2021/03/28 03:20:10;;;;;;;11.82;6.45;;;2.70;99.40;;;;;;4992032;28;20211;-63
2021/03/28 03:22:48;;;;;;;9.52;7.20;;;2.80;99.40;;;;;;4990174;28;20211;-63
2021/03/28 03:25:51;;;;;;;9.50;7.70;;;2.70;99.40;;;;;;5010827;28;20361;-63
2021/03/28 03:28:47;;;;;;;8.40;6.43;;;2.60;99.70;;;;;;4966855;28;20206;-63
2021/03/28 03:31:47;;;;;;;14.32;7.55;;;2.60;99.60;;;;;;4997774;28;20210;-63
2021/03/28 03:34:28;;;;;;;12.52;8.00;;;2.60;99.50;;;;;;4978825;28;20218;-63
2021/03/28 03:37:14;;;;;;;12.10;7.90;;;2.40;99.90;;;;;;4982639;28;20293;-64
2021/03/28 03:40:15;;;;;;;13.35;8.35;;;2.40;99.90;;;;;;4998728;28;20211;-64
2021/03/28 03:43:06;;;;;;;17.70;8.35;;;2.40;99.90;;;;;;4978313;28;20219;-63
2021/03/28 03:45:57;;;;;;;13.27;9.30;;;2.40;99.70;;;;;;4996459;28;20202;-64
2021/03/28 03:48:28;;;;;;;12.95;9.45;;;2.40;99.90;;;;;;4996406;28;20478;-64
2021/03/28 03:51:49;;;;;;;15.82;9.35;;;2.50;99.60;;;;;;4981437;28;20366;-64
2021/03/28 03:54:41;;;;;;;14.35;9.05;;;2.40;99.90;;;;;;4906280;29;20219;-63
2021/03/28 03:57:24;;;;;;;11.10;8.25;;;2.30;99.90;;;;;;4991700;28;20241;-64
2021/03/28 04:00:09;;;;;;;15.27;8.32;;;2.20;99.90;;;;;;4978964;28;20210;-63
2021/03/28 04:03:13;;;;;;;16.08;8.15;;;2.30;99.90;;;;;;4997643;28;20276;-63
2021/03/28 04:06:01;;;;;;;13.45;8.70;;;2.20;99.90;;;;;;4984832;28;20752;-62
2021/03/28 04:08:49;;;;;;;14.45;8.20;;;2.20;99.90;;;;;;4989061;28;20213;-63
2021/03/28 04:11:53;;;;;;;17.20;8.25;;;2.00;99.90;;;;;;5001111;28;20608;-63
2021/03/28 04:14:34;;;;;;;15.52;8.77;;;2.20;99.90;;;;;;4987983;28;20312;-63
2021/03/28 04:17:19;;;;;;;11.75;8.05;;;2.30;99.90;;;;;;4989628;28;20241;-63
2021/03/28 04:20:07;;;;;;;12.05;8.63;;;2.30;99.90;;;;;;4998360;28;20214;-64
2021/03/28 04:22:40;;;;;;;17.45;8.73;;;2.30;99.90;;;;;;4992992;28;20524;-64
2021/03/28 04:25:45;;;;;;;13.35;8.73;;;2.30;99.90;;;;;;4996329;28;20214;-65
2021/03/28 04:28:53;;;;;;;23.13;9.68;;;2.40;99.90;;;;;;4996872;28;20206;-64
2021/03/28 04:31:38;;;;;;;10.68;8.43;;;2.40;99.90;;;;;;4964578;28;20213;-63
2021/03/28 04:34:16;;;;;;;14.60;9.05;;;2.50;99.90;;;;;;4990291;28;20263;-63
2021/03/28 04:37:01;;;;;;;12.68;8.85;;;2.50;99.90;;;;;;4998375;28;20703;-63
2021/03/28 04:40:05;;;;;;;9.63;7.85;;;2.30;99.90;;;;;;4991749;28;20201;-63
2021/03/28 04:43:03;;;;;;;13.90;9.10;;;2.40;99.90;;;;;;4989142;28;20201;-65
2021/03/28 04:46:22;;;;;;;12.52;8.20;;;2.50;99.90;;;;;;4986723;28;20211;-63
2021/03/28 04:48:52;;;;;;;16.02;10.45;;;2.60;99.80;;;;;;4939231;29;20294;-62
2021/03/28 04:51:30;;;;;;;11.27;8.13;;;2.80;99.60;;;;;;4997232;28;20206;-65
2021/03/28 04:54:08;;;;;;;21.02;8.43;;;2.60;99.70;;;;;;5000395;28;20209;-64
2021/03/28 04:56:56;;;;;;;12.50;8.65;;;2.60;99.70;;;;;;5011695;28;20216;-64
2021/03/28 04:59:59;;;;;;;18.85;9.02;;;2.60;99.90;;;;;;4987698;28;20202;-64
2021/03/28 05:02:54;;;;;;;10.23;7.53;;;2.60;99.80;;;;;;5012982;28;20221;-65
2021/03/28 05:05:58;;;;;;;10.93;7.75;;;2.70;99.90;;;;;;5000923;28;20205;-64
2021/03/28 05:08:54;;;;;;;10.23;8.20;;;2.90;99.90;;;;;;4987532;28;20205;-64
2021/03/28 05:11:40;;;;;;;10.07;6.40;;;3.90;99.90;;;;;;4999796;28;20464;-64
2021/03/28 05:14:25;;;;;;;10.38;7.03;;;3.80;99.30;;;;;;4998806;28;20211;-64
2021/03/28 05:17:37;;;;;;;10.43;5.25;;;4.20;98.20;;;;;;4980810;28;20303;-64
2021/03/28 05:20:51;;;;;;;6.20;4.72;;;4.60;97.10;;;;;;4984818;28;20209;-64
2021/03/28 05:23:45;;;;;;;7.80;5.28;;;5.10;96.10;;;;;;4999277;28;20501;-64
2021/03/28 05:26:37;;;;;;;8.63;4.65;;;5.60;95.00;;;;;;4999771;28;20433;-64
2021/03/28 05:29:22;;;;;;;7.28;5.45;;;6.00;94.20;;;;;;4989334;28;20209;-63
2021/03/28 05:31:58;;;;;;;8.23;5.10;;;6.50;93.00;;;;;;4999522;28;20401;-64
2021/03/28 05:34:43;;;;;;;5.47;4.68;;;7.10;92.30;;;;;;4999568;28;20515;-64
2021/03/28 05:37:37;;;;;;;7.97;4.68;;;7.60;90.80;;;;;;5000117;28;20245;-64
2021/03/28 05:40:41;;;;;;;5.30;4.40;;;8.20;89.00;;;;;;4998975;28;20217;-64
2021/03/28 05:43:26;;;;;;;12.82;4.15;;;8.60;86.90;;;;;;5011981;28;20523;-64
2021/03/28 05:45:52;;;;;;;8.15;5.15;;;9.20;86.20;;;;;;4980224;28;20518;-63
2021/03/28 05:48:22;;;;;;;5.70;4.85;;;9.70;82.60;;;;;;4994068;28;20315;-64
2021/03/28 05:50:49;;;;;;;5.05;4.65;;;10.00;80.10;;;;;;4986191;28;20211;-65
2021/03/28 05:53:15;;;;;;;8.52;5.57;;;10.00;80.60;;;;;;4987325;28;20213;-64
2021/03/28 05:56:01;;;;;;;5.50;5.00;;;10.30;79.50;;;;;;5010831;28;20215;-64
2021/03/28 05:58:51;;;;;;;6.85;5.18;;;10.60;76.50;;;;;;4999084;28;20303;-64
2021/03/28 06:01:22;;;;;;;7.38;5.15;;;11.40;75.40;;;;;;4988438;28;20233;-63
2021/03/28 06:04:13;;;;;;;8.15;4.88;;;12.10;71.60;;;;;;5011558;28;20209;-63
2021/03/28 06:06:59;;;;;;;8.20;4.43;;;12.80;67.80;;;;;;5001343;28;20222;-64
2021/03/28 06:09:59;;;;;;;5.65;4.78;;;13.20;64.50;;;;;;4998602;28;20549;-64
2021/03/28 06:12:46;;;;;;;7.30;4.75;;;13.30;63.40;;;;;;4998623;28;20211;-64
2021/03/28 06:15:28;;;;;;;15.20;5.70;;;13.90;62.50;;;;;;4986446;28;20213;-64
2021/03/28 06:18:14;;;;;;;5.55;4.65;;;14.70;58.40;;;;;;4993857;28;20223;-65
2021/03/28 06:21:00;;;;;;;13.63;4.50;;;14.80;57.20;;;;;;4998719;28;20217;-65
2021/03/28 06:23:53;;;;;;;5.73;4.17;;;15.10;55.60;;;;;;4983960;28;21016;-66
2021/03/28 06:26:57;;;;;;;4.50;4.10;;;15.40;55.10;;;;;;4997360;28;20514;-65
2021/03/28 06:29:45;;;;;;;9.70;5.40;;;16.10;53.20;;;;;;4990689;28;20438;-65
2021/03/28 06:32:26;;;;;;;12.63;6.73;;;17.10;52.00;;;;;;4995268;28;20486;-65
2021/03/28 06:35:14;;;;;;;10.70;4.70;;;18.40;49.30;;;;;;4998031;28;20409;-64
2021/03/28 06:38:03;;;;;;;6.03;4.83;;;17.30;48.70;;;;;;4998138;28;20460;-65
2021/03/28 06:40:57;;;;;;;4.83;4.20;;;17.90;48.80;;;;;;5002455;28;20442;-65
2021/03/28 06:44:06;;;;;;;6.80;5.40;;;18.60;46.30;;;;;;5000573;28;20414;-65
2021/03/28 06:47:06;;;;;;;6.00;5.27;;;19.70;45.40;;;;;;4972622;28;20423;-63
2021/03/28 06:49:51;;;;;;;8.23;4.13;;;20.50;43.90;;;;;;4988252;28;20460;-66
2021/03/28 06:52:56;;;;;;;6.60;5.20;;;21.80;40.70;;;;;;4998848;28;20460;-67
2021/03/28 06:55:37;;;;;;;7.80;5.37;;;22.40;38.70;;;;;;5009841;28;20419;-66
2021/03/28 06:58:28;;;;;;;7.13;5.00;;;20.90;40.60;;;;;;5003707;28;20487;-64
2021/03/28 07:00:57;;;;;;;6.23;4.80;;;20.00;42.70;;;;;;5009273;28;20467;-64
2021/03/28 07:03:51;;;;;;;7.13;4.50;;;18.70;45.40;;;;;;5005882;28;20466;-65
2021/03/28 07:06:17;;;;;;;11.63;4.80;;;17.40;47.30;;;;;;4994570;28;20657;-65
2021/03/28 07:08:47;;;;;;;7.20;4.90;;;17.70;47.30;;;;;;4987732;28;20425;-65
2021/03/28 07:11:53;;;;;;;7.80;4.77;;;18.40;46.00;;;;;;4999077;28;20532;-65
2021/03/28 07:15:04;;;;;;;10.13;5.97;;;17.40;47.00;;;;;;4986253;28;20423;-64
2021/03/28 07:17:34;;;;;;;7.67;5.40;;;18.00;47.00;;;;;;4967573;28;20465;-64
2021/03/28 07:20:23;;;;;;;6.43;5.10;;;18.00;47.10;;;;;;5000634;28;20413;-64
2021/03/28 07:23:11;;;;;;;7.67;4.83;;;18.90;44.60;;;;;;4997817;28;20429;-64
2021/03/28 07:26:14;;;;;;;7.63;4.73;;;19.90;43.40;;;;;;4980362;28;20419;-64
2021/03/28 07:28:56;;;;;;;7.37;5.63;;;20.80;40.60;;;;;;5000511;28;20745;-64
2021/03/28 07:31:59;;;;;;;9.87;4.87;;;20.60;41.70;;;;;;4997091;28;20755;-64
2021/03/28 07:35:01;;;;;;;9.03;4.90;;;20.50;41.10;;;;;;4981213;28;20609;-65
2021/03/28 07:38:15;;;;;;;11.33;5.40;;;20.50;41.70;;;;;;4980426;28;20481;-65
2021/03/28 07:41:01;;;;;;;8.47;5.53;;;18.60;44.00;;;;;;4993677;28;20436;-65
2021/03/28 07:43:52;;;;;;;6.43;4.47;;;16.20;49.60;;;;;;4987265;28;20486;-64
2021/03/28 07:46:46;;;;;;;10.70;4.33;;;14.90;52.70;;;;;;4999287;28;20418;-64
2021/03/28 07:49:48;;;;;;;7.73;4.93;;;13.90;55.10;;;;;;4997923;28;20473;-64
2021/03/28 07:52:24;;;;;;;10.60;5.15;;;13.60;58.10;;;;;;4987089;28;20444;-65
2021/03/28 07:55:00;;;;;;;9.15;4.40;;;14.70;54.50;;;;;;4999206;28;20204;-65
2021/03/28 07:57:49;;;;;;;9.07;4.57;;;15.40;53.40;;;;;;4997326;28;20405;-64
2021/03/28 08:00:43;;;;;;;6.83;4.80;;;15.50;52.80;;;;;;4997504;28;20681;-65
2021/03/28 08:03:47;;;;;;;14.83;4.63;;;16.00;51.40;;;;;;4987721;28;20434;-64
2021/03/28 08:06:39;;;;;;;8.05;4.70;;;15.20;52.00;;;;;;4993424;28;20455;-64
2021/03/28 08:09:26;;;;;;;5.75;4.90;;;14.30;54.40;;;;;;4990576;28;20347;-65
2021/03/28 08:12:18;;;;;;;8.65;4.75;;;14.10;56.40;;;;;;4985508;28;20271;-64
2021/03/28 08:15:22;;;;;;;9.65;4.90;;;13.40;57.10;;;;;;4996372;28;20207;-63
2021/03/28 08:18:13;;;;;;;13.65;5.40;;;12.70;59.50;;;;;;4984995;28;20230;-65
2021/03/28 08:20:43;;;;;;;7.90;4.88;;;13.10;59.30;;;;;;4985026;28;20217;-63
2021/03/28 08:23:36;;;;;;;5.63;4.85;;;14.00;58.40;;;;;;4990887;28;20207;-63
2021/03/28 08:26:15;;;;;;;8.13;5.00;;;14.80;54.00;;;;;;4991007;28;20231;-63
2021/03/28 08:29:32;;;;;;;9.63;5.80;;;16.00;51.90;;;;;;4988585;28;20214;-63
2021/03/28 08:32:32;;;;;;;10.63;5.45;;;16.10;51.20;;;;;;4981712;28;20463;-64
2021/03/28 08:35:31;;;;;;;14.43;5.95;;;15.60;51.50;;;;;;4993971;28;20246;-64
2021/03/28 08:38:16;;;;;;;10.17;6.40;;;15.00;52.60;;;;;;4991017;28;20235;-64
2021/03/28 08:41:17;;;;;;;10.02;5.05;;;15.50;52.50;;;;;;4994811;28;20452;-63
2021/03/28 08:44:11;;;;;;;9.30;5.85;;;15.50;51.70;;;;;;5000380;28;20215;-64
2021/03/28 08:46:56;;;;;;;18.70;5.67;;;15.40;52.00;;;;;;4996412;28;20215;-64
2021/03/28 08:49:41;;;;;;;8.83;5.50;;;16.60;50.00;;;;;;4982510;28;20446;-64
2021/03/28 08:52:10;;;;;;;16.17;5.10;;;17.20;47.90;;;;;;4979946;28;20450;-65
2021/03/28 08:55:05;;;;;;;8.83;5.57;;;17.10;48.20;;;;;;4973919;28;20446;-63
2021/03/28 08:57:38;;;;;;;6.83;4.33;;;17.30;46.40;;;;;;4985801;28;20460;-65
2021/03/28 09:00:24;;;;;;;13.30;5.43;;;17.00;47.00;;;;;;4983106;28;20451;-65
2021/03/28 09:03:11;;;;;;;7.43;5.20;;;17.80;45.70;;;;;;4975334;28;20440;-64
2021/03/28 09:05:44;;;;;;;11.10;5.63;;;18.70;43.90;;;;;;4973600;28;20442;-66
2021/03/28 09:08:35;;;;;;;6.90;5.47;;;18.30;44.80;;;;;;4967957;28;20452;-64
2021/03/28 09:11:26;;;;;;;8.93;5.40;;;17.30;45.40;;;;;;4968294;28;20809;-63
2021/03/28 09:14:13;;;;;;;15.07;7.20;;;16.30;47.50;;;;;;4989826;28;20486;-64
2021/03/28 09:16:59;;;;;;;14.03;7.70;;;15.70;48.30;;;;;;4980235;28;20664;-63
2021/03/28 09:20:03;;;;;;;7.80;4.77;;;15.00;49.70;;;;;;4987113;28;20456;-64
2021/03/28 09:22:48;;;;;;;6.43;4.53;;;15.10;51.20;;;;;;4980454;28;20519;-63
2021/03/28 09:25:38;;;;;;;10.88;4.72;;;15.50;51.30;;;;;;4972294;28;20228;-63
2021/03/28 09:28:17;;;;;;;12.60;4.87;;;15.40;50.00;;;;;;4976844;28;20223;-63
2021/03/28 09:31:06;;;;;;;6.23;4.83;;;15.30;49.90;;;;;;4979086;28;20686;-64
2021/03/28 09:33:45;;;;;;;8.57;5.97;;;15.60;49.50;;;;;;4986499;28;20426;-64
2021/03/28 09:36:30;;;;;;;11.93;4.75;;;15.40;49.50;;;;;;4975693;28;20271;-63
2021/03/28 09:39:38;;;;;;;12.60;5.00;;;14.90;49.60;;;;;;4983890;28;20235;-64
2021/03/28 09:42:26;;;;;;;7.20;4.70;;;15.00;50.50;;;;;;4973598;28;20532;-63
2021/03/28 09:45:14;;;;;;;7.35;4.95;;;14.90;50.10;;;;;;4978347;28;20242;-63
2021/03/28 09:47:59;;;;;;;8.50;5.00;;;14.60;49.60;;;;;;4979702;28;20250;-63
2021/03/28 09:50:37;;;;;;;7.30;4.50;;;14.30;50.00;;;;;;5002884;28;20399;-64
2021/03/28 09:53:27;;;;;;;6.65;4.07;;;14.00;51.00;;;;;;5001641;28;20208;-64
2021/03/28 09:56:02;;;;;;;6.78;5.10;;;13.90;52.90;;;;;;5001825;28;20204;-64
2021/03/28 09:59:07;;;;;;;7.40;4.60;;;14.10;52.50;;;;;;4995277;28;20233;-64
2021/03/28 10:01:49;;;;;;;8.18;5.10;;;14.00;52.70;;;;;;4998435;28;20283;-63
2021/03/28 10:04:47;;;;;;;7.43;5.53;;;13.70;52.80;;;;;;5006824;28;20508;-64
2021/03/28 10:07:15;;;;;;;8.43;4.90;;;13.90;54.20;;;;;;4998925;28;20228;-63
2021/03/28 10:09:55;;;;;;;8.05;5.45;;;14.30;52.70;;;;;;4998530;28;20202;-64
2021/03/28 10:12:41;;;;;;;6.57;5.45;;;14.60;51.10;;;;;;4981883;28;20246;-63
2021/03/28 10:15:26;;;;;;;7.35;5.25;;;14.80;51.20;;;;;;4999135;28;20214;-63
2021/03/28 10:18:28;;;;;;;7.40;5.43;;;14.70;51.30;;;;;;4998254;28;20298;-64
2021/03/28 10:21:00;;;;;;;10.18;4.90;;;14.90;50.60;;;;;;4990904;28;20207;-64
2021/03/28 10:23:45;;;;;;;10.88;5.15;;;15.10;49.50;;;;;;5003293;28;20214;-64
2021/03/28 10:26:55;;;;;;;9.52;4.32;;;14.70;50.20;;;;;;5001716;28;20245;-64
2021/03/28 10:29:33;;;;;;;8.65;5.63;;;15.00;50.50;;;;;;4989625;28;20280;-62
2021/03/28 10:32:31;;;;;;;9.45;5.55;;;15.20;49.40;;;;;;4997365;28;20455;-63
2021/03/28 10:35:16;;;;;;;8.23;5.32;;;14.90;50.50;;;;;;5008301;28;20211;-63
2021/03/28 10:38:00;;;;;;;12.65;5.97;;;14.50;50.00;;;;;;4990530;28;20241;-64
2021/03/28 10:40:42;;;;;;;11.20;6.30;;;14.40;51.00;;;;;;4989936;28;20230;-62
2021/03/28 10:43:39;;;;;;;13.75;5.72;;;14.60;49.80;;;;;;4990046;28;20218;-63
2021/03/28 10:46:43;;;;;;;11.48;5.55;;;14.40;49.20;;;;;;4993080;28;20511;-63
2021/03/28 10:49:55;;;;;;;12.35;5.70;;;14.10;49.90;;;;;;4991561;28;20237;-64
2021/03/28 10:52:46;;;;;;;12.10;6.43;;;14.20;49.70;;;;;;4973794;28;20223;-64
2021/03/28 10:55:31;;;;;;;8.52;6.32;;;14.40;49.70;;;;;;4993566;28;20219;-64
2021/03/28 10:58:16;;;;;;;9.82;5.75;;;14.70;49.10;;;;;;4993255;28;20226;-63
2021/03/28 11:01:05;;;;;;;17.50;9.20;;;14.90;49.60;;;;;;5002056;28;20232;-63
2021/03/28 11:03:56;;;;;;;12.40;6.22;;;15.10;48.50;;;;;;4991958;28;20391;-63
2021/03/28 11:06:48;;;;;;;13.27;4.85;;;15.00;48.60;;;;;;4997906;28;20450;-63
2021/03/28 11:09:24;;;;;;;8.15;4.90;;;14.90;48.20;;;;;;4998305;28;20236;-63
2021/03/28 11:12:27;;;;;;;12.27;6.47;;;14.60;48.60;;;;;;4986017;28;20224;-64
2021/03/28 11:15:13;;;;;;;16.85;7.80;;;14.80;48.00;;;;;;5011054;28;20211;-62
2021/03/28 11:18:01;;;;;;;9.60;6.00;;;15.10;47.90;;;;;;4984654;28;20303;-63
2021/03/28 11:20:52;;;;;;;19.15;9.93;;;15.40;46.20;;;;;;4985642;28;20514;-63
2021/03/28 11:23:43;;;;;;;19.27;6.37;;;15.60;45.50;;;;;;5000827;28;20501;-64
2021/03/28 11:26:25;;;;;;;10.80;5.87;;;16.00;44.50;;;;;;5004211;28;20452;-64
2021/03/28 11:29:02;;;;;;;9.60;5.80;;;16.10;44.10;;;;;;4986217;28;20452;-63
2021/03/28 11:31:58;;;;;;;8.60;5.33;;;16.20;45.60;;;;;;4997077;28;20435;-63
2021/03/28 11:34:39;;;;;;;14.10;5.30;;;15.60;45.90;;;;;;4982224;28;20425;-63
2021/03/28 11:37:31;;;;;;;8.43;5.90;;;15.20;47.00;;;;;;4992060;28;20439;-63
2021/03/28 11:40:18;;;;;;;6.80;5.63;;;15.20;47.20;;;;;;4992463;28;20445;-63
2021/03/28 11:42:50;;;;;;;10.23;6.55;;;15.20;47.90;;;;;;4980860;28;20623;-64
2021/03/28 11:45:47;;;;;;;7.20;5.53;;;15.40;47.60;;;;;;4997336;28;20523;-64
2021/03/28 11:48:38;;;;;;;16.67;6.20;;;15.20;46.90;;;;;;4997365;28;20934;-63
2021/03/28 11:51:23;;;;;;;9.07;5.95;;;15.10;47.90;;;;;;4992640;28;20444;-63
2021/03/28 11:54:08;;;;;;;13.07;7.07;;;15.20;48.10;;;;;;5011734;28;20490;-64
2021/03/28 11:56:56;;;;;;;6.33;5.00;;;15.30;46.90;;;;;;4997663;28;20578;-63
2021/03/28 11:59:23;;;;;;;5.87;4.90;;;15.50;46.20;;;;;;5001775;28;20695;-63
2021/03/28 12:01:56;;;;;;;5.57;4.80;;;15.80;46.40;;;;;;4988622;28;20465;-63
2021/03/28 12:04:40;;;;;;;12.33;5.53;;;15.90;45.30;;;;;;5000598;28;20211;-64
2021/03/28 12:07:34;;;;;;;5.97;4.00;;;15.80;45.10;;;;;;4994782;28;20451;-64
2021/03/28 12:10:03;;;;;;;8.52;5.47;;;15.70;44.60;;;;;;4984169;28;20762;-63
2021/03/28 12:12:39;;;;;;;5.60;5.10;;;15.50;44.40;;;;;;4997022;28;20216;-64
2021/03/28 12:15:43;;;;;;;5.55;4.05;;;15.50;44.80;;;;;;4996830;28;20444;-63
2021/03/28 12:18:22;;;;;;;8.98;6.47;;;14.80;45.40;;;;;;4997014;28;20241;-64
2021/03/28 12:20:58;;;;;;;6.68;5.07;;;14.80;45.50;;;;;;4986679;28;20204;-65
2021/03/28 12:23:28;;;;;;;11.57;5.00;;;14.80;44.80;;;;;;4996000;28;20234;-64
2021/03/28 12:26:27;;;;;;;12.63;5.80;;;14.80;45.00;;;;;;5000808;28;20257;-63
2021/03/28 12:28:59;;;;;;;6.82;4.65;;;14.90;45.40;;;;;;4981725;28;20213;-64
2021/03/28 12:31:32;;;;;;;13.02;6.55;;;15.00;44.60;;;;;;5000171;28;20278;-64
2021/03/28 12:34:08;;;;;;;6.47;5.53;;;15.20;44.60;;;;;;5001425;28;20212;-64
2021/03/28 12:37:02;;;;;;;8.50;4.50;;;15.50;43.90;;;;;;4999605;28;20452;-62
2021/03/28 12:39:45;;;;;;;8.77;5.97;;;15.80;43.00;;;;;;4991344;28;20468;-64
2021/03/28 12:42:24;;;;;;;7.83;7.00;;;15.90;42.30;;;;;;5000847;28;20436;-63
2021/03/28 12:44:53;;;;;;;7.37;5.33;;;15.40;42.10;;;;;;5000961;28;20858;-64
2021/03/28 12:47:25;;;;;;;9.03;5.00;;;15.40;42.80;;;;;;4986754;28;20482;-62
2021/03/28 12:50:01;;;;;;;6.73;4.47;;;15.20;43.20;;;;;;5000598;28;20406;-63
2021/03/28 12:52:40;;;;;;;9.10;5.28;;;15.00;44.20;;;;;;4986331;28;20455;-63
2021/03/28 12:55:09;;;;;;;8.65;4.30;;;14.60;45.10;;;;;;4980546;28;20210;-65
2021/03/28 12:57:54;;;;;;;9.75;4.40;;;14.70;45.00;;;;;;4994021;28;20210;-63
2021/03/28 13:00:35;;;;;;;10.43;4.95;;;14.50;45.70;;;;;;4994408;28;20542;-64
2021/03/28 13:03:20;;;;;;;5.85;4.43;;;14.70;45.70;;;;;;4988942;28;20222;-63
2021/03/28 13:06:02;;;;;;;7.55;5.05;;;14.80;45.20;;;;;;4986316;28;20532;-63
2021/03/28 13:08:40;;;;;;;10.75;4.22;;;14.50;45.60;;;;;;4988160;28;20551;-63
2021/03/28 13:11:08;;;;;;;8.52;4.85;;;14.30;46.10;;;;;;4999264;28;20218;-63
2021/03/28 13:13:49;;;;;;;5.15;4.03;;;14.00;46.30;;;;;;4987475;28;20219;-65
2021/03/28 13:16:28;;;;;;;13.25;5.05;;;13.90;45.70;;;;;;4986613;28;20412;-63
2021/03/28 13:19:00;;;;;;;9.15;4.55;;;14.20;46.20;;;;;;4999675;28;20494;-63
2021/03/28 13:21:34;;;;;;;8.65;4.53;;;14.20;45.10;;;;;;4999237;28;20557;-64
2021/03/28 13:24:20;;;;;;;5.85;4.63;;;14.30;45.40;;;;;;4999636;28;20276;-64
2021/03/28 13:27:04;;;;;;;9.48;4.93;;;14.20;45.90;;;;;;4984329;28;20551;-62
2021/03/28 13:29:37;;;;;;;16.02;4.65;;;14.00;46.00;;;;;;5005318;28;20281;-63
2021/03/28 13:32:25;;;;;;;18.15;5.43;;;14.10;46.70;;;;;;4981162;28;20306;-63
2021/03/28 13:35:25;;;;;;;5.03;4.55;;;14.20;47.10;;;;;;4997971;28;20229;-63
2021/03/28 13:37:53;;;;;;;6.85;4.80;;;14.20;46.20;;;;;;5006229;28;20246;-64
2021/03/28 13:40:51;;;;;;;5.18;4.70;;;14.10;47.50;;;;;;4994744;28;20213;-62
2021/03/28 13:43:24;;;;;;;7.18;5.07;;;14.00;47.30;;;;;;4988350;28;20217;-63
2021/03/28 13:45:52;;;;;;;11.68;5.63;;;13.70;48.60;;;;;;5000556;28;20212;-63
2021/03/28 13:48:19;;;;;;;5.80;5.03;;;13.40;47.40;;;;;;5000668;28;20312;-63
2021/03/28 13:50:46;;;;;;;9.85;5.05;;;13.30;48.80;;;;;;5002013;28;20217;-63
2021/03/28 13:53:39;;;;;;;7.47;5.20;;;13.20;49.50;;;;;;4993155;28;20212;-64
2021/03/28 13:56:34;;;;;;;6.85;4.95;;;13.40;48.50;;;;;;4991524;28;20206;-63
2021/03/28 13:59:18;;;;;;;5.10;4.03;;;13.70;47.70;;;;;;4989280;28;20557;-63
2021/03/28 14:02:27;;;;;;;11.05;5.32;;;13.60;47.30;;;;;;4984626;28;20232;-63
2021/03/28 14:04:59;;;;;;;5.97;5.05;;;13.70;47.60;;;;;;4986173;28;20206;-63
2021/03/28 14:07:51;;;;;;;7.43;4.47;;;13.70;46.90;;;;;;4984124;28;20210;-63
2021/03/28 14:10:20;;;;;;;7.30;4.53;;;13.40;47.50;;;;;;4987740;28;20206;-64
2021/03/28 14:12:56;;;;;;;9.98;4.38;;;13.40;48.10;;;;;;4987325;28;20301;-63
2021/03/28 14:15:31;;;;;;;10.20;5.10;;;13.30;47.60;;;;;;4989910;28;20205;-62
2021/03/28 14:18:23;;;;;;;5.38;4.65;;;13.40;47.50;;;;;;4986523;28;20242;-63
2021/03/28 14:21:08;;;;;;;7.72;4.35;;;13.60;47.20;;;;;;4980607;28;20207;-62
2021/03/28 14:23:48;;;;;;;8.90;5.80;;;13.90;47.50;;;;;;4983521;28;20519;-63
2021/03/28 14:26:14;;;;;;;8.40;5.43;;;14.10;45.70;;;;;;4985073;28;20207;-63